Kezdőlap
METAR-TAF:

METAR-TAF

Repülőterek :

Nashua, New Hampshire, Amerikai Egyesült Államok

földrajzi szélesség: 42-47N, földrajzi hosszúság: 071-31W, magasság: 61 m

Jelenlegi meteorológiai megfigyelések

A jelentés 27 perccel ezelõtt készült, 14:56 UTC
Északnyugati szél 11 kt széllökések: 20 kt
Hőmérséklet 11°C
Páratartalom 35%
Légköri nyomás 1016 hPa
Látótávolság: 16.1 km
Derült ég

METAR: KASH 061456Z COR 32011G20KT 10SM CLR 11/M04 A3001 RMK AO2 SLP168 T01111044 58004

Idő: 11:23 (15:23 UTC)


TAF: hiányzik

Meteorológiai megfigyelések és előrejelzések több, mint 4000 repülőtéren (METAR és TAF jelentéseket).

A térképen piros és sárga pontok jelzik az elérhető meteorológiai állomásokat.

Mozgassa az egeret a pont fölött, hogy megjelenjen az állomás neve.

Azután kattintson az időjárási megfigyelések és előrejelzések megtekintéséhez.

A térkép megváltoztatása: kattintson a fekete keresztel jelölt zöld gombra ráközelítéshez, a vonallal jelölt zöld gombra távolításhoz, vagy a zöld nyilakra a szomszédos térképek eléréséhez.


METAR-TAF: